createdAt,value
2022-10-19T00:03:32.825Z,89.10
2022-10-19T00:08:36.006Z,89.35
2022-10-19T00:13:40.541Z,89.18
2022-10-19T00:18:45.436Z,89.11
2022-10-19T00:23:49.119Z,89.02
2022-10-19T00:28:55.528Z,89.04
2022-10-19T00:33:59.109Z,89.06
2022-10-19T00:39:06.142Z,89.00
2022-10-19T00:44:11.881Z,89.00
2022-10-19T00:49:24.707Z,88.83
2022-10-19T00:54:28.137Z,88.88
2022-10-19T00:59:33.387Z,89.04
2022-10-19T01:04:44.730Z,89.04
2022-10-19T01:09:47.777Z,88.96
2022-10-19T01:15:05.946Z,88.81
2022-10-19T01:21:00.358Z,88.75
2022-10-19T01:26:40.321Z,88.86
2022-10-19T01:32:11.284Z,88.82
2022-10-19T01:37:34.015Z,88.75
2022-10-19T01:43:01.126Z,88.66
2022-10-19T01:48:15.176Z,88.85
2022-10-19T01:53:21.277Z,88.96
2022-10-19T01:58:31.779Z,89.05
2022-10-19T02:03:38.171Z,89.05
2022-10-19T02:08:47.182Z,89.00
2022-10-19T02:14:01.109Z,89.14
2022-10-19T02:19:08.846Z,89.21
2022-10-19T02:24:11.941Z,89.16
2022-10-19T02:29:16.533Z,89.11
2022-10-19T02:34:20.096Z,89.06
2022-10-19T02:39:24.125Z,89.22
2022-10-19T02:44:36.525Z,89.32
2022-10-19T02:49:41.512Z,89.23
2022-10-19T02:54:45.841Z,89.16
2022-10-19T02:59:49.849Z,89.11
2022-10-19T03:04:52.908Z,89.14
2022-10-19T03:09:55.970Z,89.31
2022-10-19T03:14:59.082Z,89.25
2022-10-19T03:20:02.291Z,89.13
2022-10-19T03:25:06.323Z,88.97
2022-10-19T03:30:10.183Z,89.01
2022-10-19T03:35:13.274Z,89.16
2022-10-19T03:40:16.453Z,89.24
2022-10-19T03:45:20.685Z,89.24
2022-10-19T03:50:24.283Z,89.25
2022-10-19T03:55:27.305Z,89.26
2022-10-19T04:00:30.310Z,89.39
2022-10-19T04:05:33.329Z,89.50
2022-10-19T04:10:36.417Z,89.61
2022-10-19T04:15:40.139Z,89.65
2022-10-19T04:20:44.181Z,89.64
2022-10-19T04:25:47.181Z,89.82
2022-10-19T04:30:50.281Z,89.82
2022-10-19T04:36:00.045Z,89.82
2022-10-19T04:41:09.599Z,89.73
2022-10-19T04:46:17.249Z,89.82
2022-10-19T04:51:21.879Z,89.74
2022-10-19T04:56:26.581Z,89.61
2022-10-19T05:01:31.759Z,89.61
2022-10-19T05:06:34.853Z,89.89
2022-10-19T05:11:37.859Z,90.14
2022-10-19T05:16:40.864Z,90.28
2022-10-19T05:21:44.102Z,90.47
2022-10-19T05:26:47.075Z,90.72
2022-10-19T05:31:50.795Z,90.75
2022-10-19T05:36:56.564Z,90.39
2022-10-19T05:41:59.581Z,90.43
2022-10-19T05:47:05.238Z,90.54
2022-10-19T05:52:08.252Z,90.51
2022-10-19T05:57:11.448Z,90.59
2022-10-19T06:02:14.626Z,90.61
2022-10-19T06:07:17.865Z,90.51
2022-10-19T06:12:24.316Z,90.42
2022-10-19T06:17:29.695Z,90.49
2022-10-19T06:22:32.829Z,90.58
2022-10-19T06:27:36.275Z,90.47
2022-10-19T06:32:39.766Z,90.28
2022-10-19T06:37:43.789Z,90.11
2022-10-19T06:42:47.103Z,90.13
2022-10-19T06:47:50.396Z,90.13
2022-10-19T06:52:53.433Z,89.81
2022-10-19T06:57:58.856Z,89.63
2022-10-19T07:03:01.907Z,89.51
2022-10-19T07:08:05.020Z,89.29
2022-10-19T07:13:11.102Z,89.31
2022-10-19T07:18:15.376Z,89.15
2022-10-19T07:23:18.493Z,89.00
2022-10-19T07:28:22.722Z,87.96
2022-10-19T07:33:25.823Z,87.25
2022-10-19T07:38:32.033Z,86.90
2022-10-19T07:43:36.230Z,86.18
2022-10-19T07:48:39.337Z,84.92
2022-10-19T07:53:42.989Z,84.21
2022-10-19T07:58:46.495Z,83.45
2022-10-19T08:09:40.162Z,81.18
2022-10-19T08:14:39.107Z,80.36
2022-10-19T08:19:43.642Z,79.14
2022-10-19T08:24:46.859Z,77.64
2022-10-19T08:29:51.742Z,76.42
2022-10-19T08:34:54.808Z,77.18
2022-10-19T08:39:58.016Z,76.79
2022-10-19T08:45:42.897Z,75.84
2022-10-19T08:50:48.142Z,73.40
2022-10-19T09:02:16.809Z,71.06
2022-10-19T09:07:37.288Z,70.12
2022-10-19T09:12:59.183Z,69.83
2022-10-19T09:18:03.911Z,67.36
2022-10-19T09:23:51.359Z,68.61
2022-10-19T09:28:58.673Z,69.77
2022-10-19T09:34:29.823Z,69.17
2022-10-19T09:39:33.250Z,67.63
2022-10-19T09:44:36.855Z,67.17
2022-10-19T09:49:39.754Z,65.22
2022-10-19T09:54:44.190Z,69.04
2022-10-19T09:59:55.100Z,70.43
2022-10-19T10:05:15.408Z,72.31
2022-10-19T10:10:18.392Z,70.59
2022-10-19T10:15:30.135Z,70.06
2022-10-19T10:20:33.206Z,69.93
2022-10-19T10:25:38.143Z,68.08
2022-10-19T10:30:47.466Z,66.60
2022-10-19T10:35:55.726Z,67.13
2022-10-19T10:41:17.872Z,71.96
2022-10-19T10:46:29.388Z,76.72
2022-10-19T10:51:43.799Z,78.93
2022-10-19T10:57:18.956Z,79.98
2022-10-19T11:02:37.385Z,80.50
2022-10-19T11:07:46.942Z,79.96
2022-10-19T11:13:12.903Z,78.68
2022-10-19T11:18:22.640Z,76.97
2022-10-19T11:23:48.351Z,76.07
2022-10-19T11:29:27.643Z,74.23
2022-10-19T11:34:56.209Z,73.55
2022-10-19T11:41:16.876Z,73.54
2022-10-19T11:47:01.367Z,71.88
2022-10-19T11:52:23.302Z,70.29
2022-10-19T11:57:33.169Z,69.38
2022-10-19T12:03:11.267Z,70.36
2022-10-19T12:09:08.507Z,71.14
2022-10-19T12:14:22.903Z,71.44
2022-10-19T12:19:37.293Z,69.93
2022-10-19T12:24:40.405Z,68.69
2022-10-19T12:29:49.785Z,65.86
2022-10-19T12:35:34.948Z,64.19
2022-10-19T12:41:05.274Z,60.97
2022-10-19T12:46:24.023Z,59.92
2022-10-19T12:51:27.279Z,60.19
2022-10-19T12:56:30.491Z,60.90
2022-10-19T13:01:33.576Z,62.18
2022-10-19T13:06:42.675Z,65.16
2022-10-19T13:12:21.406Z,66.56
2022-10-19T13:17:46.592Z,67.03
2022-10-19T13:23:03.705Z,66.59
2022-10-19T13:28:06.598Z,66.76
2022-10-19T13:33:35.147Z,67.21
2022-10-19T13:38:56.520Z,66.28
2022-10-19T13:44:25.312Z,65.77
2022-10-19T13:50:16.396Z,64.76
2022-10-19T13:55:42.164Z,64.04
2022-10-19T14:01:19.202Z,64.32
2022-10-19T14:06:28.802Z,62.79
2022-10-19T14:11:38.690Z,61.65
2022-10-19T14:17:10.605Z,61.18
2022-10-19T14:22:30.457Z,61.59
2022-10-19T14:27:35.489Z,61.97
2022-10-19T14:37:44.462Z,63.58
2022-10-19T14:42:48.815Z,64.18
2022-10-19T14:47:59.789Z,65.42
2022-10-19T14:53:33.676Z,67.21
2022-10-19T14:58:49.908Z,68.87
2022-10-19T15:03:53.895Z,71.00
2022-10-19T15:09:12.231Z,73.51
2022-10-19T15:14:28.661Z,75.17
2022-10-19T15:19:37.858Z,75.91
2022-10-19T15:24:55.967Z,76.54
2022-10-19T15:30:26.634Z,77.25
2022-10-19T15:35:35.043Z,77.43
2022-10-19T15:40:42.326Z,77.53
2022-10-19T15:45:45.354Z,78.40
2022-10-19T15:50:52.100Z,78.87
2022-10-19T15:55:55.182Z,79.56
2022-10-19T16:00:58.358Z,80.06
2022-10-19T16:06:01.669Z,80.20
2022-10-19T16:11:05.390Z,80.64
2022-10-19T16:16:14.901Z,81.18
2022-10-19T16:21:20.895Z,80.75
2022-10-19T16:26:26.265Z,80.68
2022-10-19T16:31:29.608Z,80.89
2022-10-19T16:36:32.817Z,81.11
2022-10-19T16:46:39.835Z,81.04
2022-10-19T16:51:43.255Z,81.04
2022-10-19T16:56:48.509Z,81.11
2022-10-19T17:01:51.800Z,81.39
2022-10-19T17:06:55.019Z,81.68
2022-10-19T17:11:58.128Z,81.87
2022-10-19T17:17:01.346Z,81.88
2022-10-19T17:22:05.682Z,81.84
2022-10-19T17:27:09.001Z,82.06
2022-10-19T17:32:12.113Z,82.36
2022-10-19T17:37:15.195Z,82.72
2022-10-19T17:42:18.416Z,83.24
2022-10-19T17:47:21.628Z,83.39
2022-10-19T17:52:24.729Z,83.32
2022-10-19T17:57:28.144Z,83.25
2022-10-19T18:02:31.186Z,83.47
2022-10-19T18:07:34.721Z,83.67
2022-10-19T18:12:38.369Z,83.80
2022-10-19T18:17:41.391Z,83.91
2022-10-19T18:22:44.384Z,83.75
2022-10-19T18:27:47.496Z,83.72
2022-10-19T18:32:50.591Z,83.91
2022-10-19T18:37:53.602Z,83.96
2022-10-19T18:42:56.809Z,84.25
2022-10-19T18:48:00.012Z,84.43
2022-10-19T18:53:03.117Z,84.13
2022-10-19T18:58:06.148Z,84.11
2022-10-19T19:03:09.230Z,84.20
2022-10-19T19:08:12.332Z,84.44
2022-10-19T19:13:15.338Z,84.47
2022-10-19T19:23:26.372Z,84.50
2022-10-19T19:28:29.467Z,84.56
2022-10-19T19:33:33.189Z,84.75
2022-10-19T19:38:36.815Z,84.71
2022-10-19T19:43:42.721Z,84.49
2022-10-19T19:48:48.122Z,84.38
2022-10-19T19:53:51.142Z,84.35
2022-10-19T19:58:59.751Z,84.47
2022-10-19T20:09:11.481Z,84.32
2022-10-19T20:14:14.939Z,84.33
2022-10-19T20:19:18.043Z,84.56
2022-10-19T20:24:21.046Z,84.71
2022-10-19T20:29:24.151Z,84.68
2022-10-19T20:34:27.161Z,84.64
2022-10-19T20:39:30.268Z,84.61
2022-10-19T20:44:33.262Z,84.76
2022-10-19T20:49:36.775Z,84.97
2022-10-19T20:54:39.883Z,84.97
2022-10-19T20:59:44.097Z,85.14
2022-10-19T21:04:47.119Z,85.47
2022-10-19T21:09:50.131Z,85.78
2022-10-19T21:14:53.127Z,85.83
2022-10-19T21:19:57.338Z,85.78
2022-10-19T21:25:00.655Z,85.29
2022-10-19T21:30:05.108Z,84.88
2022-10-19T21:35:08.418Z,84.71
2022-10-19T21:40:11.733Z,84.83
2022-10-19T21:45:30.860Z,84.96
2022-10-19T21:50:34.223Z,84.93
2022-10-19T21:55:37.430Z,84.84
2022-10-19T22:00:41.053Z,84.77
2022-10-19T22:05:53.475Z,84.89
2022-10-19T22:10:56.704Z,84.98
2022-10-19T22:16:16.189Z,85.16
2022-10-19T22:21:24.166Z,85.42
2022-10-19T22:26:35.237Z,85.39
2022-10-19T22:31:39.384Z,85.47
2022-10-19T22:36:43.649Z,85.68
2022-10-19T22:41:46.656Z,85.72
2022-10-19T22:46:49.687Z,85.83
2022-10-19T22:51:52.661Z,86.03
2022-10-19T22:56:55.771Z,86.07
2022-10-19T23:01:59.013Z,86.17
2022-10-19T23:07:02.108Z,86.24
2022-10-19T23:12:05.806Z,86.53
2022-10-19T23:17:08.704Z,86.69
2022-10-19T23:22:11.649Z,86.83
2022-10-19T23:27:14.813Z,86.69
2022-10-19T23:32:17.755Z,86.69
2022-10-19T23:37:23.176Z,86.27
2022-10-19T23:42:26.182Z,86.61
2022-10-19T23:47:29.185Z,87.03
2022-10-19T23:52:32.107Z,87.19
2022-10-19T23:57:36.139Z,87.07
